This is the latest recevied weather packets stored in our database for station/object NN5DX-12. If no packets are shown the sender has not sent any weather packets the latest 10 day(s).
| Time | Temp. | Humidity | Pressure | Rain* | Wind** | Luminosity | Snow |
|---|---|---|---|---|---|---|---|
| 1777745116 | 12.22° C | 24% | 1026.5 hPa | 0 mm | - | - | - |
| 1777744816 | 12.78° C | 22% | 1027.2 hPa | 0 mm | - | - | - |
| 1777744516 | 12.78° C | 27% | 1027.4 hPa | 0 mm | - | - | - |
| 1777744216 | 12.78° C | 24% | 1027.4 hPa | 0 mm | - | - | - |
| 1777743917 | 12.78° C | 23% | 1027.4 hPa | 0 mm | - | - | - |
| 1777743616 | 12.78° C | 27% | 1027.5 hPa | 0 mm | - | - | - |
| 1777743316 | 12.78° C | 27% | 1027.6 hPa | 0 mm | - | - | - |
| 1777743016 | 12.78° C | 24% | 1027.5 hPa | 0 mm | - | - | - |
| 1777742716 | 12.78° C | 28% | 1027.7 hPa | 0 mm | - | - | - |
| 1777742416 | 12.22° C | 27% | 1027.8 hPa | 0 mm | - | - | - |
| 1777742116 | 11.67° C | 27% | 1027.3 hPa | 0 mm | - | - | - |
| 1777741816 | 11.67° C | 27% | 1027.3 hPa | 0 mm | - | - | - |
| 1777741516 | 11.67° C | 26% | 1027.3 hPa | 0 mm | - | - | - |
| 1777741216 | 11.67° C | 26% | 1027.4 hPa | 0 mm | - | - | - |
| 1777740916 | 11.67° C | 31% | 1027.5 hPa | 0 mm | - | - | - |
| 1777740616 | 11.11° C | 25% | 1027.5 hPa | 0 mm | - | - | - |
| 1777740316 | 11.11° C | 25% | 1027.4 hPa | 0 mm | - | - | - |
| 1777740016 | 11.11° C | 26% | 1027.5 hPa | 0 mm | - | - | - |
| 1777739716 | 11.11° C | 27% | 1027.6 hPa | 0 mm | - | - | - |
| 1777739416 | 11.11° C | 26% | 1027.6 hPa | 0 mm | - | - | - |
| 1777739116 | 11.11° C | 28% | 1027.7 hPa | 0 mm | - | - | - |
| 1777738816 | 11.11° C | 27% | 1027.6 hPa | 0 mm | - | - | - |
| 1777738516 | 11.67° C | 26% | 1028.2 hPa | 0 mm | - | - | - |
| 1777738216 | 11.11° C | 28% | 1027.7 hPa | 0 mm | - | - | - |
| 1777737916 | 10.56° C | 29% | 1027.2 hPa | 0 mm | - | - | - |
* Rain latest hour (hover to see other rain measurements)
** Current wind speed in m/s (hover to see current wind gust speed)